sensor_id;sensor_type;location;lat;lon;timestamp;pressure;altitude;pressure_sealevel;temperature;humidity
6615;BME280;3343;42.896;23.912;2022-10-17T00:01:02;97893.91;;;14.66;53.50
6615;BME280;3343;42.896;23.912;2022-10-17T00:03:29;97896.56;;;14.66;53.48
6615;BME280;3343;42.896;23.912;2022-10-17T00:05:56;97893.88;;;14.51;53.66
6615;BME280;3343;42.896;23.912;2022-10-17T00:08:23;97898.66;;;14.71;52.86
6615;BME280;3343;42.896;23.912;2022-10-17T00:10:56;97896.44;;;14.97;51.87
6615;BME280;3343;42.896;23.912;2022-10-17T00:13:25;97891.31;;;14.81;52.30
6615;BME280;3343;42.896;23.912;2022-10-17T00:15:52;97896.81;;;13.80;56.18
6615;BME280;3343;42.896;23.912;2022-10-17T00:18:19;97903.81;;;14.26;55.36
6615;BME280;3343;42.896;23.912;2022-10-17T00:20:47;97895.91;;;14.41;54.83
6615;BME280;3343;42.896;23.912;2022-10-17T00:23:13;97900.00;;;14.52;53.27
6615;BME280;3343;42.896;23.912;2022-10-17T00:25:40;97898.72;;;14.48;53.86
6615;BME280;3343;42.896;23.912;2022-10-17T00:28:09;97898.81;;;14.31;55.48
6615;BME280;3343;42.896;23.912;2022-10-17T00:30:37;97906.69;;;14.62;54.38
6615;BME280;3343;42.896;23.912;2022-10-17T00:33:04;97899.53;;;14.48;53.65
6615;BME280;3343;42.896;23.912;2022-10-17T00:35:31;97896.09;;;14.62;52.75
6615;BME280;3343;42.896;23.912;2022-10-17T00:37:58;97903.22;;;14.62;52.01
6615;BME280;3343;42.896;23.912;2022-10-17T00:40:25;97911.78;;;14.49;52.16
6615;BME280;3343;42.896;23.912;2022-10-17T00:42:52;97905.00;;;14.01;54.53
6615;BME280;3343;42.896;23.912;2022-10-17T00:45:22;97911.81;;;14.41;54.24
6615;BME280;3343;42.896;23.912;2022-10-17T00:47:54;97899.00;;;14.53;53.48
6615;BME280;3343;42.896;23.912;2022-10-17T00:50:25;97914.47;;;14.41;54.16
6615;BME280;3343;42.896;23.912;2022-10-17T00:52:53;97914.00;;;14.60;53.23
6615;BME280;3343;42.896;23.912;2022-10-17T00:55:23;97914.16;;;13.90;55.38
6615;BME280;3343;42.896;23.912;2022-10-17T00:57:51;97915.47;;;14.17;54.88
6615;BME280;3343;42.896;23.912;2022-10-17T01:00:19;97916.41;;;14.24;54.62
6615;BME280;3343;42.896;23.912;2022-10-17T01:02:47;97908.59;;;14.08;54.70
6615;BME280;3343;42.896;23.912;2022-10-17T01:05:17;97912.16;;;14.38;53.37
6615;BME280;3343;42.896;23.912;2022-10-17T01:07:45;97918.09;;;14.40;52.92
6615;BME280;3343;42.896;23.912;2022-10-17T01:10:14;97912.59;;;14.27;52.92
6615;BME280;3343;42.896;23.912;2022-10-17T01:12:51;97918.16;;;14.32;53.00
6615;BME280;3343;42.896;23.912;2022-10-17T01:15:35;97912.75;;;14.25;53.14
6615;BME280;3343;42.896;23.912;2022-10-17T01:18:12;97921.72;;;14.24;54.01
6615;BME280;3343;42.896;23.912;2022-10-17T01:21:19;97917.22;;;14.25;53.32
6615;BME280;3343;42.896;23.912;2022-10-17T01:24:09;97913.59;;;14.03;53.78
6615;BME280;3343;42.896;23.912;2022-10-17T01:26:52;97910.03;;;13.88;54.35
6615;BME280;3343;42.896;23.912;2022-10-17T01:29:36;97914.81;;;13.84;54.18
6615;BME280;3343;42.896;23.912;2022-10-17T01:32:16;97915.44;;;13.16;57.84
6615;BME280;3343;42.896;23.912;2022-10-17T01:34:49;97913.69;;;13.48;57.24
6615;BME280;3343;42.896;23.912;2022-10-17T01:37:21;97921.53;;;13.33;57.76
6615;BME280;3343;42.896;23.912;2022-10-17T01:39:57;97916.81;;;13.51;56.57
6615;BME280;3343;42.896;23.912;2022-10-17T01:42:30;97912.47;;;13.19;57.52
6615;BME280;3343;42.896;23.912;2022-10-17T01:45:03;97924.88;;;13.58;56.34
6615;BME280;3343;42.896;23.912;2022-10-17T01:47:34;97925.06;;;13.56;55.92
6615;BME280;3343;42.896;23.912;2022-10-17T01:50:03;97919.41;;;13.59;55.92
6615;BME280;3343;42.896;23.912;2022-10-17T01:52:37;97924.53;;;13.61;55.47
6615;BME280;3343;42.896;23.912;2022-10-17T01:55:08;97914.03;;;13.45;56.38
6615;BME280;3343;42.896;23.912;2022-10-17T01:57:39;97916.72;;;13.36;56.29
6615;BME280;3343;42.896;23.912;2022-10-17T02:00:10;97920.72;;;13.24;57.01
6615;BME280;3343;42.896;23.912;2022-10-17T02:02:42;97928.91;;;13.46;56.55
6615;BME280;3343;42.896;23.912;2022-10-17T02:05:10;97912.00;;;13.07;56.86
6615;BME280;3343;42.896;23.912;2022-10-17T02:07:40;97933.47;;;13.04;58.85
6615;BME280;3343;42.896;23.912;2022-10-17T02:10:12;97932.38;;;13.46;56.60
6615;BME280;3343;42.896;23.912;2022-10-17T02:12:48;97936.03;;;13.37;56.26
6615;BME280;3343;42.896;23.912;2022-10-17T02:15:40;97929.13;;;13.67;55.02
6615;BME280;3343;42.896;23.912;2022-10-17T02:18:26;97938.47;;;13.86;54.51
6615;BME280;3343;42.896;23.912;2022-10-17T02:21:01;97942.69;;;13.72;55.47
6615;BME280;3343;42.896;23.912;2022-10-17T02:23:36;97944.81;;;13.77;54.92
6615;BME280;3343;42.896;23.912;2022-10-17T02:26:08;97946.91;;;13.89;54.17
6615;BME280;3343;42.896;23.912;2022-10-17T02:28:40;97920.00;;;13.78;53.11
6615;BME280;3343;42.896;23.912;2022-10-17T02:31:14;97942.72;;;13.64;54.01
6615;BME280;3343;42.896;23.912;2022-10-17T02:33:46;97949.00;;;13.63;54.85
6615;BME280;3343;42.896;23.912;2022-10-17T02:36:18;97948.53;;;13.59;54.52
6615;BME280;3343;42.896;23.912;2022-10-17T02:38:49;97949.94;;;13.31;57.03
6615;BME280;3343;42.896;23.912;2022-10-17T02:41:19;97949.59;;;13.34;56.32
6615;BME280;3343;42.896;23.912;2022-10-17T02:43:48;97950.81;;;12.83;57.71
6615;BME280;3343;42.896;23.912;2022-10-17T02:46:18;97960.56;;;12.58;59.35
6615;BME280;3343;42.896;23.912;2022-10-17T02:48:49;97960.56;;;12.90;58.33
6615;BME280;3343;42.896;23.912;2022-10-17T02:51:22;97957.41;;;13.27;56.79
6615;BME280;3343;42.896;23.912;2022-10-17T02:53:58;97964.19;;;13.22;56.77
6615;BME280;3343;42.896;23.912;2022-10-17T02:56:28;97962.69;;;13.19;57.08
6615;BME280;3343;42.896;23.912;2022-10-17T02:58:57;97957.72;;;13.32;55.34
6615;BME280;3343;42.896;23.912;2022-10-17T03:01:26;97960.03;;;13.27;55.69
6615;BME280;3343;42.896;23.912;2022-10-17T03:04:05;97971.00;;;13.63;53.87
6615;BME280;3343;42.896;23.912;2022-10-17T03:06:32;97976.91;;;13.10;55.46
6615;BME280;3343;42.896;23.912;2022-10-17T03:08:59;97965.81;;;13.15;55.46
6615;BME280;3343;42.896;23.912;2022-10-17T03:11:26;97970.44;;;13.29;54.96
6615;BME280;3343;42.896;23.912;2022-10-17T03:13:53;97973.94;;;13.13;54.09
6615;BME280;3343;42.896;23.912;2022-10-17T03:16:20;97968.13;;;13.34;53.69
6615;BME280;3343;42.896;23.912;2022-10-17T03:18:46;97964.97;;;13.38;53.64
6615;BME280;3343;42.896;23.912;2022-10-17T03:21:15;97966.63;;;13.31;54.02
6615;BME280;3343;42.896;23.912;2022-10-17T03:23:42;97972.47;;;13.02;54.84
6615;BME280;3343;42.896;23.912;2022-10-17T03:26:08;97971.44;;;13.12;54.06
6615;BME280;3343;42.896;23.912;2022-10-17T03:28:36;97968.16;;;12.93;54.79
6615;BME280;3343;42.896;23.912;2022-10-17T03:31:06;97965.00;;;12.98;54.74
6615;BME280;3343;42.896;23.912;2022-10-17T03:33:35;97969.47;;;12.73;56.03
6615;BME280;3343;42.896;23.912;2022-10-17T03:36:05;97980.38;;;13.11;55.20
6615;BME280;3343;42.896;23.912;2022-10-17T03:38:34;97975.09;;;12.46;57.05
6615;BME280;3343;42.896;23.912;2022-10-17T03:41:01;97974.25;;;12.37;58.23
6615;BME280;3343;42.896;23.912;2022-10-17T03:43:29;97977.91;;;12.52;57.87
6615;BME280;3343;42.896;23.912;2022-10-17T03:45:56;97975.91;;;12.22;59.57
6615;BME280;3343;42.896;23.912;2022-10-17T03:48:23;97983.53;;;12.65;57.55
6615;BME280;3343;42.896;23.912;2022-10-17T03:50:50;97982.84;;;12.47;56.90
6615;BME280;3343;42.896;23.912;2022-10-17T03:53:17;97994.25;;;12.80;55.50
6615;BME280;3343;42.896;23.912;2022-10-17T03:55:46;97997.72;;;13.21;54.61
6615;BME280;3343;42.896;23.912;2022-10-17T03:58:12;97990.78;;;12.88;54.31
6615;BME280;3343;42.896;23.912;2022-10-17T04:00:39;97986.81;;;12.92;53.93
6615;BME280;3343;42.896;23.912;2022-10-17T04:03:07;97990.13;;;13.02;53.57
6615;BME280;3343;42.896;23.912;2022-10-17T04:05:34;97991.28;;;12.75;54.49
6615;BME280;3343;42.896;23.912;2022-10-17T04:08:01;97988.44;;;12.20;56.17
6615;BME280;3343;42.896;23.912;2022-10-17T04:10:27;97998.66;;;11.46;60.15
6615;BME280;3343;42.896;23.912;2022-10-17T04:12:56;98002.41;;;11.70;60.86
6615;BME280;3343;42.896;23.912;2022-10-17T04:15:23;97999.41;;;11.99;58.66
6615;BME280;3343;42.896;23.912;2022-10-17T04:17:50;98000.56;;;12.04;58.04
6615;BME280;3343;42.896;23.912;2022-10-17T04:20:17;97993.94;;;11.92;58.40
6615;BME280;3343;42.896;23.912;2022-10-17T04:22:44;98002.69;;;11.93;58.89
6615;BME280;3343;42.896;23.912;2022-10-17T04:25:11;98003.59;;;12.18;57.84
6615;BME280;3343;42.896;23.912;2022-10-17T04:27:38;98003.63;;;12.34;57.64
6615;BME280;3343;42.896;23.912;2022-10-17T04:30:07;98006.28;;;12.42;57.77
6615;BME280;3343;42.896;23.912;2022-10-17T04:32:35;98003.78;;;12.24;58.12
6615;BME280;3343;42.896;23.912;2022-10-17T04:35:03;98007.78;;;11.94;58.57
6615;BME280;3343;42.896;23.912;2022-10-17T04:37:30;98009.78;;;12.00;59.72
6615;BME280;3343;42.896;23.912;2022-10-17T04:39:57;98017.47;;;12.20;57.40
6615;BME280;3343;42.896;23.912;2022-10-17T04:42:24;98004.78;;;12.31;56.49
6615;BME280;3343;42.896;23.912;2022-10-17T04:44:51;98013.94;;;12.11;57.15
6615;BME280;3343;42.896;23.912;2022-10-17T04:47:19;98013.88;;;12.45;56.61
6615;BME280;3343;42.896;23.912;2022-10-17T04:49:46;98025.69;;;12.17;56.73
6615;BME280;3343;42.896;23.912;2022-10-17T04:52:13;98031.25;;;11.71;58.97
6615;BME280;3343;42.896;23.912;2022-10-17T04:54:40;98034.63;;;11.82;59.06
6615;BME280;3343;42.896;23.912;2022-10-17T04:57:06;98028.38;;;11.83;59.37
6615;BME280;3343;42.896;23.912;2022-10-17T04:59:33;98025.78;;;11.13;63.52
6615;BME280;3343;42.896;23.912;2022-10-17T05:02:00;98031.88;;;11.31;63.67
6615;BME280;3343;42.896;23.912;2022-10-17T05:04:28;98030.34;;;11.80;60.39
6615;BME280;3343;42.896;23.912;2022-10-17T05:06:55;98037.72;;;11.25;62.16
6615;BME280;3343;42.896;23.912;2022-10-17T05:09:22;98040.41;;;11.85;61.49
6615;BME280;3343;42.896;23.912;2022-10-17T05:11:49;98035.97;;;12.28;60.07
6615;BME280;3343;42.896;23.912;2022-10-17T05:14:16;98043.16;;;13.25;56.66
6615;BME280;3343;42.896;23.912;2022-10-17T05:16:43;98048.81;;;14.24;52.58
6615;BME280;3343;42.896;23.912;2022-10-17T05:19:10;98045.09;;;14.95;50.06
6615;BME280;3343;42.896;23.912;2022-10-17T05:21:38;98055.13;;;16.05;47.30
6615;BME280;3343;42.896;23.912;2022-10-17T05:24:06;98046.88;;;16.14;45.89
6615;BME280;3343;42.896;23.912;2022-10-17T05:26:33;98051.47;;;16.56;44.23
6615;BME280;3343;42.896;23.912;2022-10-17T05:29:01;98059.66;;;17.19;44.07
6615;BME280;3343;42.896;23.912;2022-10-17T05:31:28;98061.44;;;17.61;41.90
6615;BME280;3343;42.896;23.912;2022-10-17T05:33:58;98057.09;;;17.81;41.68
6615;BME280;3343;42.896;23.912;2022-10-17T05:36:25;98072.44;;;18.62;40.27
6615;BME280;3343;42.896;23.912;2022-10-17T05:38:54;98066.97;;;18.29;41.02
6615;BME280;3343;42.896;23.912;2022-10-17T05:41:21;98065.84;;;17.75;42.18
6615;BME280;3343;42.896;23.912;2022-10-17T05:43:47;98069.41;;;17.89;41.97
6615;BME280;3343;42.896;23.912;2022-10-17T05:46:14;98070.53;;;18.08;41.22
6615;BME280;3343;42.896;23.912;2022-10-17T05:48:41;98068.22;;;17.14;42.26
6615;BME280;3343;42.896;23.912;2022-10-17T05:51:08;98069.66;;;17.38;42.32
6615;BME280;3343;42.896;23.912;2022-10-17T05:53:37;98079.88;;;17.35;43.79
6615;BME280;3343;42.896;23.912;2022-10-17T05:56:07;98076.47;;;17.69;43.37
6615;BME280;3343;42.896;23.912;2022-10-17T05:58:35;98084.19;;;17.92;42.25
6615;BME280;3343;42.896;23.912;2022-10-17T06:01:05;98088.16;;;18.50;40.82
6615;BME280;3343;42.896;23.912;2022-10-17T06:03:32;98085.22;;;18.25;40.53
6615;BME280;3343;42.896;23.912;2022-10-17T06:06:02;98091.94;;;18.69;40.68
6615;BME280;3343;42.896;23.912;2022-10-17T06:08:30;98087.34;;;18.50;40.86
6615;BME280;3343;42.896;23.912;2022-10-17T06:10:57;98095.28;;;18.97;40.00
6615;BME280;3343;42.896;23.912;2022-10-17T06:13:25;98098.22;;;19.49;39.93
6615;BME280;3343;42.896;23.912;2022-10-17T06:15:52;98092.66;;;19.90;39.07
6615;BME280;3343;42.896;23.912;2022-10-17T06:18:19;98097.59;;;19.93;38.65
6615;BME280;3343;42.896;23.912;2022-10-17T06:20:46;98098.03;;;19.83;39.15
6615;BME280;3343;42.896;23.912;2022-10-17T06:23:13;98098.47;;;19.60;39.64
6615;BME280;3343;42.896;23.912;2022-10-17T06:25:40;98105.22;;;19.76;39.35
6615;BME280;3343;42.896;23.912;2022-10-17T06:28:07;98102.31;;;19.91;39.83
6615;BME280;3343;42.896;23.912;2022-10-17T06:30:38;98105.63;;;20.64;39.38
6615;BME280;3343;42.896;23.912;2022-10-17T06:33:05;98106.22;;;21.11;38.56
6615;BME280;3343;42.896;23.912;2022-10-17T06:35:32;98116.81;;;21.55;38.21
6615;BME280;3343;42.896;23.912;2022-10-17T06:37:59;98100.97;;;21.79;37.35
6615;BME280;3343;42.896;23.912;2022-10-17T06:40:26;98107.25;;;21.91;37.10
6615;BME280;3343;42.896;23.912;2022-10-17T06:42:55;98109.91;;;22.16;37.43
6615;BME280;3343;42.896;23.912;2022-10-17T06:45:23;98118.63;;;22.30;37.04
6615;BME280;3343;42.896;23.912;2022-10-17T06:47:51;98111.25;;;22.62;36.98
6615;BME280;3343;42.896;23.912;2022-10-17T06:50:18;98112.22;;;22.67;37.05
6615;BME280;3343;42.896;23.912;2022-10-17T06:52:45;98111.88;;;22.94;36.83
6615;BME280;3343;42.896;23.912;2022-10-17T06:55:12;98109.25;;;22.57;36.55
6615;BME280;3343;42.896;23.912;2022-10-17T06:57:39;98108.03;;;22.71;36.67
6615;BME280;3343;42.896;23.912;2022-10-17T07:00:06;98110.25;;;22.93;36.65
6615;BME280;3343;42.896;23.912;2022-10-17T07:02:33;98104.59;;;22.46;37.92
6615;BME280;3343;42.896;23.912;2022-10-17T07:05:02;98109.59;;;22.79;38.17
6615;BME280;3343;42.896;23.912;2022-10-17T07:07:29;98113.78;;;22.38;38.96
6615;BME280;3343;42.896;23.912;2022-10-17T07:09:58;98114.38;;;22.59;38.36
6615;BME280;3343;42.896;23.912;2022-10-17T07:12:25;98116.97;;;22.47;39.15
6615;BME280;3343;42.896;23.912;2022-10-17T07:14:52;98121.59;;;22.95;37.78
6615;BME280;3343;42.896;23.912;2022-10-17T07:17:19;98127.59;;;23.08;37.79
6615;BME280;3343;42.896;23.912;2022-10-17T07:19:46;98131.88;;;23.39;37.05
6615;BME280;3343;42.896;23.912;2022-10-17T07:22:15;98132.91;;;23.38;36.25
6615;BME280;3343;42.896;23.912;2022-10-17T07:24:41;98134.66;;;22.91;36.98
6615;BME280;3343;42.896;23.912;2022-10-17T07:27:08;98133.84;;;23.32;36.76
6615;BME280;3343;42.896;23.912;2022-10-17T07:29:35;98133.13;;;23.55;36.36
6615;BME280;3343;42.896;23.912;2022-10-17T07:32:02;98132.31;;;23.66;35.92
6615;BME280;3343;42.896;23.912;2022-10-17T07:34:33;98135.13;;;23.71;35.87
6615;BME280;3343;42.896;23.912;2022-10-17T07:37:00;98133.16;;;23.78;35.53
6615;BME280;3343;42.896;23.912;2022-10-17T07:39:28;98139.69;;;23.71;35.65
6615;BME280;3343;42.896;23.912;2022-10-17T07:41:55;98135.88;;;23.48;35.42
6615;BME280;3343;42.896;23.912;2022-10-17T07:44:23;98144.72;;;23.79;36.00
6615;BME280;3343;42.896;23.912;2022-10-17T07:46:50;98142.16;;;23.84;35.49
6615;BME280;3343;42.896;23.912;2022-10-17T07:49:17;98143.91;;;23.37;35.78
6615;BME280;3343;42.896;23.912;2022-10-17T07:51:43;98144.31;;;23.52;36.35
6615;BME280;3343;42.896;23.912;2022-10-17T07:54:10;98146.59;;;23.90;35.00
6615;BME280;3343;42.896;23.912;2022-10-17T07:56:39;98149.94;;;24.67;34.60
6615;BME280;3343;42.896;23.912;2022-10-17T07:59:06;98145.53;;;25.01;33.98
6615;BME280;3343;42.896;23.912;2022-10-17T08:01:34;98141.34;;;25.22;32.87
6615;BME280;3343;42.896;23.912;2022-10-17T08:04:01;98137.13;;;25.43;32.40
6615;BME280;3343;42.896;23.912;2022-10-17T08:06:28;98127.91;;;25.39;32.43
6615;BME280;3343;42.896;23.912;2022-10-17T08:08:55;98134.13;;;25.56;32.30
6615;BME280;3343;42.896;23.912;2022-10-17T08:11:23;98130.66;;;24.24;32.62
6615;BME280;3343;42.896;23.912;2022-10-17T08:13:52;98130.22;;;23.57;32.74
6615;BME280;3343;42.896;23.912;2022-10-17T08:16:19;98126.00;;;23.61;34.25
6615;BME280;3343;42.896;23.912;2022-10-17T08:18:45;98129.22;;;24.28;34.16
6615;BME280;3343;42.896;23.912;2022-10-17T08:21:12;98126.69;;;25.01;32.33
6615;BME280;3343;42.896;23.912;2022-10-17T08:23:40;98132.91;;;25.64;31.96
6615;BME280;3343;42.896;23.912;2022-10-17T08:26:07;98134.53;;;25.98;30.70
6615;BME280;3343;42.896;23.912;2022-10-17T08:28:37;98136.53;;;25.69;31.38
6615;BME280;3343;42.896;23.912;2022-10-17T08:31:08;98124.09;;;25.68;31.48
6615;BME280;3343;42.896;23.912;2022-10-17T08:33:35;98133.38;;;25.44;32.84
6615;BME280;3343;42.896;23.912;2022-10-17T08:36:04;98129.97;;;26.16;32.13
6615;BME280;3343;42.896;23.912;2022-10-17T08:38:32;98128.88;;;26.55;31.47
6615;BME280;3343;42.896;23.912;2022-10-17T08:41:00;98124.09;;;26.84;30.96
6615;BME280;3343;42.896;23.912;2022-10-17T08:43:38;98121.41;;;26.84;30.69
6615;BME280;3343;42.896;23.912;2022-10-17T08:46:09;98120.06;;;26.87;31.38
6615;BME280;3343;42.896;23.912;2022-10-17T08:48:38;98115.19;;;26.62;30.06
6615;BME280;3343;42.896;23.912;2022-10-17T08:51:10;98117.75;;;26.30;30.11
6615;BME280;3343;42.896;23.912;2022-10-17T08:53:44;98098.41;;;26.16;31.01
6615;BME280;3343;42.896;23.912;2022-10-17T08:56:17;98108.78;;;26.46;29.74
6615;BME280;3343;42.896;23.912;2022-10-17T08:58:45;98111.09;;;26.81;30.09
6615;BME280;3343;42.896;23.912;2022-10-17T09:01:27;98112.88;;;27.46;29.80
6615;BME280;3343;42.896;23.912;2022-10-17T09:04:14;98117.44;;;27.73;28.76
6615;BME280;3343;42.896;23.912;2022-10-17T09:06:49;98112.09;;;26.97;29.23
6615;BME280;3343;42.896;23.912;2022-10-17T09:09:28;98113.44;;;26.51;30.09
6615;BME280;3343;42.896;23.912;2022-10-17T09:12:10;98113.38;;;26.89;29.52
6615;BME280;3343;42.896;23.912;2022-10-17T09:15:02;98117.69;;;27.12;28.61
6615;BME280;3343;42.896;23.912;2022-10-17T09:17:44;98119.69;;;27.81;27.65
6615;BME280;3343;42.896;23.912;2022-10-17T09:20:18;98113.34;;;27.70;28.61
6615;BME280;3343;42.896;23.912;2022-10-17T09:22:51;98118.34;;;27.83;28.51
6615;BME280;3343;42.896;23.912;2022-10-17T09:25:21;98116.09;;;28.12;27.69
6615;BME280;3343;42.896;23.912;2022-10-17T09:27:51;98121.66;;;28.33;27.44
6615;BME280;3343;42.896;23.912;2022-10-17T09:30:31;98127.72;;;28.60;27.26
6615;BME280;3343;42.896;23.912;2022-10-17T09:33:08;98120.47;;;28.66;26.99
6615;BME280;3343;42.896;23.912;2022-10-17T09:35:36;98119.31;;;28.57;27.24
6615;BME280;3343;42.896;23.912;2022-10-17T09:38:04;98113.97;;;28.19;26.74
6615;BME280;3343;42.896;23.912;2022-10-17T09:40:33;98118.09;;;28.27;27.02
6615;BME280;3343;42.896;23.912;2022-10-17T09:43:04;98113.78;;;28.89;28.19
6615;BME280;3343;42.896;23.912;2022-10-17T09:45:38;98113.03;;;29.08;27.06
6615;BME280;3343;42.896;23.912;2022-10-17T09:48:15;98111.66;;;29.11;25.86
6615;BME280;3343;42.896;23.912;2022-10-17T09:50:47;98116.56;;;29.19;26.51
6615;BME280;3343;42.896;23.912;2022-10-17T09:53:19;98113.66;;;29.51;25.01
6615;BME280;3343;42.896;23.912;2022-10-17T09:55:50;98109.84;;;29.77;24.11
6615;BME280;3343;42.896;23.912;2022-10-17T09:58:20;98103.84;;;29.40;24.44
6615;BME280;3343;42.896;23.912;2022-10-17T10:00:47;98109.00;;;29.36;23.94
6615;BME280;3343;42.896;23.912;2022-10-17T10:03:18;98110.41;;;29.64;24.61
6615;BME280;3343;42.896;23.912;2022-10-17T10:06:00;98101.03;;;28.84;23.73
6615;BME280;3343;42.896;23.912;2022-10-17T10:08:29;98099.31;;;28.63;24.51
6615;BME280;3343;42.896;23.912;2022-10-17T10:10:58;98097.97;;;28.65;25.80
6615;BME280;3343;42.896;23.912;2022-10-17T10:13:28;98091.78;;;28.75;25.62
6615;BME280;3343;42.896;23.912;2022-10-17T10:16:12;98100.91;;;29.77;23.94
6615;BME280;3343;42.896;23.912;2022-10-17T10:18:41;98091.94;;;29.76;23.66
6615;BME280;3343;42.896;23.912;2022-10-17T10:21:11;98092.50;;;28.55;24.68
6615;BME280;3343;42.896;23.912;2022-10-17T10:23:39;98086.19;;;29.12;24.46
6615;BME280;3343;42.896;23.912;2022-10-17T10:26:23;98088.38;;;29.25;24.98
6615;BME280;3343;42.896;23.912;2022-10-17T10:28:57;98092.19;;;30.10;23.28
6615;BME280;3343;42.896;23.912;2022-10-17T10:31:27;98078.00;;;30.29;23.02
6615;BME280;3343;42.896;23.912;2022-10-17T10:33:58;98079.50;;;30.70;23.31
6615;BME280;3343;42.896;23.912;2022-10-17T10:36:41;98073.66;;;30.92;23.68
6615;BME280;3343;42.896;23.912;2022-10-17T10:39:23;98079.59;;;30.99;21.51
6615;BME280;3343;42.896;23.912;2022-10-17T10:41:52;98080.25;;;29.40;22.42
6615;BME280;3343;42.896;23.912;2022-10-17T10:44:23;98078.34;;;29.15;23.04
6615;BME280;3343;42.896;23.912;2022-10-17T10:49:50;98063.69;;;29.88;23.94
6615;BME280;3343;42.896;23.912;2022-10-17T10:52:30;98066.13;;;30.79;23.37
6615;BME280;3343;42.896;23.912;2022-10-17T10:55:13;98062.56;;;30.84;21.70
6615;BME280;3343;42.896;23.912;2022-10-17T10:57:43;98070.38;;;30.95;21.88
6615;BME280;3343;42.896;23.912;2022-10-17T11:00:15;98064.22;;;30.10;21.64
6615;BME280;3343;42.896;23.912;2022-10-17T11:02:50;98056.59;;;28.85;21.24
6615;BME280;3343;42.896;23.912;2022-10-17T11:05:24;98059.81;;;28.72;22.72
6615;BME280;3343;42.896;23.912;2022-10-17T11:07:59;98062.13;;;29.51;21.06
6615;BME280;3343;42.896;23.912;2022-10-17T11:10:35;98057.63;;;28.74;21.85
6615;BME280;3343;42.896;23.912;2022-10-17T11:13:08;98058.31;;;29.52;21.34
6615;BME280;3343;42.896;23.912;2022-10-17T11:15:43;98050.69;;;29.24;22.57
6615;BME280;3343;42.896;23.912;2022-10-17T11:18:21;98046.38;;;29.58;21.51
6615;BME280;3343;42.896;23.912;2022-10-17T11:20:53;98043.63;;;29.84;20.95
6615;BME280;3343;42.896;23.912;2022-10-17T11:23:27;98042.75;;;29.98;21.74
6615;BME280;3343;42.896;23.912;2022-10-17T11:25:58;98040.69;;;30.55;21.29
6615;BME280;3343;42.896;23.912;2022-10-17T11:28:28;98034.41;;;29.08;21.46
6615;BME280;3343;42.896;23.912;2022-10-17T11:30:59;98043.72;;;28.45;23.23
6615;BME280;3343;42.896;23.912;2022-10-17T11:33:30;98033.69;;;28.45;22.14
6615;BME280;3343;42.896;23.912;2022-10-17T11:36:04;98028.44;;;27.39;22.95
6615;BME280;3343;42.896;23.912;2022-10-17T11:38:39;98035.47;;;27.72;22.80
6615;BME280;3343;42.896;23.912;2022-10-17T11:41:12;98032.69;;;27.30;23.22
6615;BME280;3343;42.896;23.912;2022-10-17T11:43:45;98036.72;;;27.97;23.32
6615;BME280;3343;42.896;23.912;2022-10-17T11:46:17;98027.63;;;28.85;21.95
6615;BME280;3343;42.896;23.912;2022-10-17T11:49:01;98032.97;;;28.08;22.03
6615;BME280;3343;42.896;23.912;2022-10-17T11:51:36;98026.81;;;29.00;22.44
6615;BME280;3343;42.896;23.912;2022-10-17T11:54:10;98022.94;;;28.66;21.78
6615;BME280;3343;42.896;23.912;2022-10-17T11:56:43;98031.50;;;28.37;23.22
6615;BME280;3343;42.896;23.912;2022-10-17T11:59:48;98024.47;;;28.41;22.25
6615;BME280;3343;42.896;23.912;2022-10-17T12:02:26;98023.94;;;28.49;22.95
6615;BME280;3343;42.896;23.912;2022-10-17T12:04:58;98015.59;;;27.56;22.88
6615;BME280;3343;42.896;23.912;2022-10-17T12:07:37;98009.75;;;28.22;22.75
6615;BME280;3343;42.896;23.912;2022-10-17T12:10:19;98004.31;;;28.95;22.22
6615;BME280;3343;42.896;23.912;2022-10-17T12:12:49;98019.75;;;29.25;22.04
6615;BME280;3343;42.896;23.912;2022-10-17T12:15:27;98015.38;;;29.90;21.23
6615;BME280;3343;42.896;23.912;2022-10-17T12:17:56;98022.94;;;29.98;21.15
6615;BME280;3343;42.896;23.912;2022-10-17T12:20:33;98006.56;;;28.30;22.56
6615;BME280;3343;42.896;23.912;2022-10-17T12:23:20;98015.16;;;29.35;22.43
6615;BME280;3343;42.896;23.912;2022-10-17T12:25:51;98024.03;;;28.70;23.06
6615;BME280;3343;42.896;23.912;2022-10-17T12:28:25;98023.38;;;28.37;22.77
6615;BME280;3343;42.896;23.912;2022-10-17T12:30:56;98016.81;;;27.39;22.75
6615;BME280;3343;42.896;23.912;2022-10-17T12:33:29;98024.31;;;28.11;22.33
6615;BME280;3343;42.896;23.912;2022-10-17T12:42:49;98013.25;;;29.00;21.82
6615;BME280;3343;42.896;23.912;2022-10-17T12:45:48;98010.22;;;28.81;21.57
6615;BME280;3343;42.896;23.912;2022-10-17T12:52:14;98005.66;;;28.87;21.46
6615;BME280;3343;42.896;23.912;2022-10-17T12:54:43;98009.88;;;28.52;22.18
6615;BME280;3343;42.896;23.912;2022-10-17T12:57:18;98009.66;;;28.64;21.85
6615;BME280;3343;42.896;23.912;2022-10-17T12:59:48;98000.34;;;28.35;21.94
6615;BME280;3343;42.896;23.912;2022-10-17T13:02:19;98005.28;;;28.58;23.00
6615;BME280;3343;42.896;23.912;2022-10-17T13:04:47;98008.31;;;28.67;22.99
6615;BME280;3343;42.896;23.912;2022-10-17T13:07:17;98013.00;;;29.12;21.34
6615;BME280;3343;42.896;23.912;2022-10-17T13:09:45;98006.19;;;28.89;22.16
6615;BME280;3343;42.896;23.912;2022-10-17T13:12:15;98003.50;;;29.14;21.10
6615;BME280;3343;42.896;23.912;2022-10-17T13:14:44;97998.63;;;29.47;21.25
6615;BME280;3343;42.896;23.912;2022-10-17T13:17:22;98003.44;;;28.64;21.68
6615;BME280;3343;42.896;23.912;2022-10-17T13:19:49;98000.50;;;28.08;22.01
6615;BME280;3343;42.896;23.912;2022-10-17T13:22:19;98008.31;;;28.77;21.95
6615;BME280;3343;42.896;23.912;2022-10-17T13:24:47;98002.13;;;29.27;21.52
6615;BME280;3343;42.896;23.912;2022-10-17T13:27:26;97995.38;;;29.60;20.52
6615;BME280;3343;42.896;23.912;2022-10-17T13:29:54;98004.59;;;29.44;20.96
6615;BME280;3343;42.896;23.912;2022-10-17T13:32:24;98003.72;;;28.72;21.91
6615;BME280;3343;42.896;23.912;2022-10-17T13:35:06;98011.63;;;28.89;21.41
6615;BME280;3343;42.896;23.912;2022-10-17T13:37:33;98009.31;;;28.45;22.28
6615;BME280;3343;42.896;23.912;2022-10-17T13:40:01;98001.16;;;28.30;21.80
6615;BME280;3343;42.896;23.912;2022-10-17T13:42:29;98008.28;;;27.94;22.39